sensor_id;sensor_type;location;lat;lon;timestamp;P1;durP1;ratioP1;P2;durP2;ratioP2
81298;SDS011;70766;53.170;18.160;2023-10-13T00:01:25;19.00;;;5.50;;
81298;SDS011;70766;53.170;18.160;2023-10-13T00:03:54;19.40;;;5.50;;
81298;SDS011;70766;53.170;18.160;2023-10-13T00:06:22;19.90;;;6.30;;
81298;SDS011;70766;53.170;18.160;2023-10-13T00:08:51;14.60;;;5.50;;
81298;SDS011;70766;53.170;18.160;2023-10-13T00:11:19;20.30;;;5.80;;
81298;SDS011;70766;53.170;18.160;2023-10-13T00:13:49;17.80;;;5.80;;
81298;SDS011;70766;53.170;18.160;2023-10-13T00:16:18;17.20;;;6.00;;
81298;SDS011;70766;53.170;18.160;2023-10-13T00:18:55;16.20;;;5.10;;
81298;SDS011;70766;53.170;18.160;2023-10-13T00:21:25;17.90;;;6.30;;
81298;SDS011;70766;53.170;18.160;2023-10-13T00:23:59;24.80;;;6.60;;
81298;SDS011;70766;53.170;18.160;2023-10-13T00:26:39;16.70;;;5.80;;
81298;SDS011;70766;53.170;18.160;2023-10-13T00:29:11;20.40;;;6.20;;
81298;SDS011;70766;53.170;18.160;2023-10-13T00:31:44;16.20;;;5.80;;
81298;SDS011;70766;53.170;18.160;2023-10-13T00:34:16;14.10;;;4.80;;
81298;SDS011;70766;53.170;18.160;2023-10-13T00:36:53;19.70;;;5.90;;
81298;SDS011;70766;53.170;18.160;2023-10-13T00:39:40;18.60;;;5.60;;
81298;SDS011;70766;53.170;18.160;2023-10-13T00:42:12;17.00;;;6.90;;
81298;SDS011;70766;53.170;18.160;2023-10-13T00:44:48;12.70;;;5.60;;
81298;SDS011;70766;53.170;18.160;2023-10-13T00:47:17;21.90;;;7.20;;
81298;SDS011;70766;53.170;18.160;2023-10-13T00:50:05;26.20;;;8.00;;
81298;SDS011;70766;53.170;18.160;2023-10-13T00:52:33;21.20;;;7.30;;
81298;SDS011;70766;53.170;18.160;2023-10-13T00:55:04;26.40;;;8.50;;
81298;SDS011;70766;53.170;18.160;2023-10-13T00:57:36;24.90;;;8.20;;
81298;SDS011;70766;53.170;18.160;2023-10-13T01:00:05;30.00;;;9.50;;
81298;SDS011;70766;53.170;18.160;2023-10-13T01:02:56;27.60;;;8.90;;
81298;SDS011;70766;53.170;18.160;2023-10-13T01:05:25;26.10;;;9.00;;
81298;SDS011;70766;53.170;18.160;2023-10-13T01:07:53;25.20;;;8.60;;
81298;SDS011;70766;53.170;18.160;2023-10-13T01:10:23;18.90;;;7.70;;
81298;SDS011;70766;53.170;18.160;2023-10-13T01:12:57;25.10;;;9.50;;
81298;SDS011;70766;53.170;18.160;2023-10-13T01:15:26;20.80;;;8.60;;
81298;SDS011;70766;53.170;18.160;2023-10-13T01:18:10;28.40;;;8.30;;
81298;SDS011;70766;53.170;18.160;2023-10-13T01:20:41;23.10;;;7.60;;
81298;SDS011;70766;53.170;18.160;2023-10-13T01:23:13;18.20;;;7.20;;
81298;SDS011;70766;53.170;18.160;2023-10-13T01:25:52;31.40;;;8.60;;
81298;SDS011;70766;53.170;18.160;2023-10-13T01:28:22;24.50;;;7.30;;
81298;SDS011;70766;53.170;18.160;2023-10-13T01:30:52;19.20;;;6.70;;
81298;SDS011;70766;53.170;18.160;2023-10-13T01:33:20;21.70;;;6.90;;
81298;SDS011;70766;53.170;18.160;2023-10-13T01:35:57;18.00;;;7.00;;
81298;SDS011;70766;53.170;18.160;2023-10-13T01:38:27;18.60;;;6.50;;
81298;SDS011;70766;53.170;18.160;2023-10-13T01:40:55;19.60;;;7.50;;
81298;SDS011;70766;53.170;18.160;2023-10-13T01:43:25;28.00;;;8.70;;
81298;SDS011;70766;53.170;18.160;2023-10-13T01:45:53;19.60;;;7.30;;
81298;SDS011;70766;53.170;18.160;2023-10-13T01:48:22;39.80;;;12.60;;
81298;SDS011;70766;53.170;18.160;2023-10-13T01:50:50;47.00;;;15.80;;
81298;SDS011;70766;53.170;18.160;2023-10-13T01:53:27;55.50;;;16.80;;
81298;SDS011;70766;53.170;18.160;2023-10-13T01:55:57;48.50;;;15.80;;
81298;SDS011;70766;53.170;18.160;2023-10-13T01:58:26;43.60;;;15.40;;
81298;SDS011;70766;53.170;18.160;2023-10-13T02:00:56;38.90;;;13.90;;
81298;SDS011;70766;53.170;18.160;2023-10-13T02:03:25;34.90;;;12.40;;
81298;SDS011;70766;53.170;18.160;2023-10-13T02:05:58;28.60;;;9.90;;
81298;SDS011;70766;53.170;18.160;2023-10-13T02:08:33;29.10;;;9.60;;
81298;SDS011;70766;53.170;18.160;2023-10-13T02:11:07;23.00;;;8.90;;
81298;SDS011;70766;53.170;18.160;2023-10-13T02:13:37;27.30;;;9.10;;
81298;SDS011;70766;53.170;18.160;2023-10-13T02:16:16;31.00;;;9.90;;
81298;SDS011;70766;53.170;18.160;2023-10-13T02:18:50;23.00;;;9.30;;
81298;SDS011;70766;53.170;18.160;2023-10-13T02:21:21;30.00;;;11.00;;
81298;SDS011;70766;53.170;18.160;2023-10-13T02:23:49;25.90;;;8.90;;
81298;SDS011;70766;53.170;18.160;2023-10-13T02:26:32;35.70;;;9.50;;
81298;SDS011;70766;53.170;18.160;2023-10-13T02:29:07;24.40;;;8.90;;
81298;SDS011;70766;53.170;18.160;2023-10-13T02:31:35;24.60;;;9.50;;
81298;SDS011;70766;53.170;18.160;2023-10-13T02:34:05;26.20;;;8.70;;
81298;SDS011;70766;53.170;18.160;2023-10-13T02:36:36;27.00;;;9.10;;
81298;SDS011;70766;53.170;18.160;2023-10-13T02:39:06;20.10;;;7.50;;
81298;SDS011;70766;53.170;18.160;2023-10-13T02:41:37;20.20;;;7.70;;
81298;SDS011;70766;53.170;18.160;2023-10-13T02:44:05;20.20;;;7.50;;
81298;SDS011;70766;53.170;18.160;2023-10-13T02:46:34;22.00;;;8.40;;
81298;SDS011;70766;53.170;18.160;2023-10-13T02:49:04;25.20;;;8.10;;
81298;SDS011;70766;53.170;18.160;2023-10-13T02:51:39;21.00;;;8.10;;
81298;SDS011;70766;53.170;18.160;2023-10-13T02:54:10;19.50;;;7.70;;
81298;SDS011;70766;53.170;18.160;2023-10-13T02:56:38;21.00;;;7.30;;
81298;SDS011;70766;53.170;18.160;2023-10-13T02:59:22;31.10;;;10.60;;
81298;SDS011;70766;53.170;18.160;2023-10-13T03:02:03;24.40;;;7.80;;
81298;SDS011;70766;53.170;18.160;2023-10-13T03:04:57;18.90;;;6.50;;
81298;SDS011;70766;53.170;18.160;2023-10-13T03:07:28;21.10;;;6.90;;
81298;SDS011;70766;53.170;18.160;2023-10-13T03:09:58;19.70;;;6.90;;
81298;SDS011;70766;53.170;18.160;2023-10-13T03:12:28;22.40;;;8.30;;
81298;SDS011;70766;53.170;18.160;2023-10-13T03:15:01;16.80;;;6.80;;
81298;SDS011;70766;53.170;18.160;2023-10-13T03:17:45;22.30;;;8.00;;
81298;SDS011;70766;53.170;18.160;2023-10-13T03:20:15;17.00;;;7.50;;
81298;SDS011;70766;53.170;18.160;2023-10-13T03:23:04;19.00;;;6.60;;
81298;SDS011;70766;53.170;18.160;2023-10-13T03:25:37;15.50;;;6.80;;
81298;SDS011;70766;53.170;18.160;2023-10-13T03:28:10;20.90;;;7.70;;
81298;SDS011;70766;53.170;18.160;2023-10-13T03:30:44;19.00;;;7.50;;
81298;SDS011;70766;53.170;18.160;2023-10-13T03:33:14;22.50;;;9.30;;
81298;SDS011;70766;53.170;18.160;2023-10-13T03:35:53;23.80;;;9.80;;
81298;SDS011;70766;53.170;18.160;2023-10-13T03:38:22;25.40;;;9.60;;
81298;SDS011;70766;53.170;18.160;2023-10-13T03:40:55;38.60;;;11.30;;
81298;SDS011;70766;53.170;18.160;2023-10-13T03:43:44;30.40;;;10.00;;
81298;SDS011;70766;53.170;18.160;2023-10-13T03:46:35;52.10;;;14.50;;
81298;SDS011;70766;53.170;18.160;2023-10-13T03:49:09;35.80;;;12.70;;
81298;SDS011;70766;53.170;18.160;2023-10-13T03:51:40;48.70;;;12.50;;
81298;SDS011;70766;53.170;18.160;2023-10-13T03:54:09;45.80;;;11.30;;
81298;SDS011;70766;53.170;18.160;2023-10-13T03:56:37;42.90;;;11.50;;
81298;SDS011;70766;53.170;18.160;2023-10-13T03:59:08;48.20;;;13.00;;
81298;SDS011;70766;53.170;18.160;2023-10-13T04:01:37;44.40;;;12.60;;
81298;SDS011;70766;53.170;18.160;2023-10-13T04:04:14;38.60;;;11.50;;
81298;SDS011;70766;53.170;18.160;2023-10-13T04:06:57;56.70;;;13.40;;
81298;SDS011;70766;53.170;18.160;2023-10-13T04:09:38;43.90;;;11.30;;
81298;SDS011;70766;53.170;18.160;2023-10-13T04:12:16;44.40;;;11.20;;
81298;SDS011;70766;53.170;18.160;2023-10-13T04:15:07;61.10;;;11.70;;
81298;SDS011;70766;53.170;18.160;2023-10-13T04:17:58;47.40;;;11.70;;
81298;SDS011;70766;53.170;18.160;2023-10-13T04:20:26;46.40;;;11.10;;
81298;SDS011;70766;53.170;18.160;2023-10-13T04:22:56;51.40;;;11.10;;
81298;SDS011;70766;53.170;18.160;2023-10-13T04:25:27;36.40;;;10.70;;
81298;SDS011;70766;53.170;18.160;2023-10-13T04:28:12;32.40;;;9.20;;
81298;SDS011;70766;53.170;18.160;2023-10-13T04:31:01;39.80;;;9.70;;
81298;SDS011;70766;53.170;18.160;2023-10-13T04:33:52;35.40;;;9.00;;
81298;SDS011;70766;53.170;18.160;2023-10-13T04:36:28;27.70;;;8.80;;
81298;SDS011;70766;53.170;18.160;2023-10-13T04:38:58;29.70;;;8.90;;
81298;SDS011;70766;53.170;18.160;2023-10-13T04:41:37;28.70;;;8.10;;
81298;SDS011;70766;53.170;18.160;2023-10-13T04:44:25;54.10;;;9.40;;
81298;SDS011;70766;53.170;18.160;2023-10-13T04:47:09;36.80;;;9.50;;
81298;SDS011;70766;53.170;18.160;2023-10-13T04:49:46;25.30;;;7.60;;
81298;SDS011;70766;53.170;18.160;2023-10-13T04:52:14;23.70;;;6.60;;
81298;SDS011;70766;53.170;18.160;2023-10-13T04:55:02;19.20;;;5.60;;
81298;SDS011;70766;53.170;18.160;2023-10-13T04:57:50;28.20;;;7.80;;
81298;SDS011;70766;53.170;18.160;2023-10-13T05:00:21;26.00;;;8.60;;
81298;SDS011;70766;53.170;18.160;2023-10-13T05:02:49;29.60;;;6.40;;
81298;SDS011;70766;53.170;18.160;2023-10-13T05:05:43;19.10;;;6.40;;
81298;SDS011;70766;53.170;18.160;2023-10-13T05:08:30;32.10;;;7.30;;
81298;SDS011;70766;53.170;18.160;2023-10-13T05:11:25;32.90;;;8.10;;
81298;SDS011;70766;53.170;18.160;2023-10-13T05:14:11;33.30;;;7.30;;
81298;SDS011;70766;53.170;18.160;2023-10-13T05:16:58;46.20;;;10.00;;
81298;SDS011;70766;53.170;18.160;2023-10-13T05:19:45;56.10;;;10.70;;
81298;SDS011;70766;53.170;18.160;2023-10-13T05:22:32;23.60;;;7.00;;
81298;SDS011;70766;53.170;18.160;2023-10-13T05:25:18;39.00;;;9.10;;
81298;SDS011;70766;53.170;18.160;2023-10-13T05:28:05;30.80;;;5.80;;
81298;SDS011;70766;53.170;18.160;2023-10-13T05:31:02;34.50;;;8.00;;
81298;SDS011;70766;53.170;18.160;2023-10-13T05:33:50;34.70;;;7.30;;
81298;SDS011;70766;53.170;18.160;2023-10-13T05:36:37;28.30;;;7.70;;
81298;SDS011;70766;53.170;18.160;2023-10-13T05:39:24;22.30;;;8.00;;
81298;SDS011;70766;53.170;18.160;2023-10-13T05:42:11;32.00;;;6.70;;
81298;SDS011;70766;53.170;18.160;2023-10-13T05:44:58;37.00;;;7.70;;
81298;SDS011;70766;53.170;18.160;2023-10-13T05:47:45;38.10;;;7.70;;
81298;SDS011;70766;53.170;18.160;2023-10-13T05:50:13;29.20;;;7.30;;
81298;SDS011;70766;53.170;18.160;2023-10-13T05:53:01;16.30;;;5.70;;
81298;SDS011;70766;53.170;18.160;2023-10-13T05:55:39;22.10;;;6.90;;
81298;SDS011;70766;53.170;18.160;2023-10-13T05:58:26;17.80;;;6.70;;
81298;SDS011;70766;53.170;18.160;2023-10-13T06:01:13;24.90;;;6.30;;
81298;SDS011;70766;53.170;18.160;2023-10-13T06:03:59;21.70;;;7.10;;
81298;SDS011;70766;53.170;18.160;2023-10-13T06:06:46;31.90;;;8.90;;
81298;SDS011;70766;53.170;18.160;2023-10-13T06:09:33;30.80;;;8.60;;
81298;SDS011;70766;53.170;18.160;2023-10-13T06:12:20;21.20;;;7.00;;
81298;SDS011;70766;53.170;18.160;2023-10-13T06:15:07;33.10;;;8.40;;
81298;SDS011;70766;53.170;18.160;2023-10-13T06:17:54;19.00;;;8.00;;
81298;SDS011;70766;53.170;18.160;2023-10-13T06:20:42;24.40;;;8.60;;
81298;SDS011;70766;53.170;18.160;2023-10-13T06:23:29;21.20;;;7.30;;
81298;SDS011;70766;53.170;18.160;2023-10-13T06:26:16;24.60;;;8.80;;
81298;SDS011;70766;53.170;18.160;2023-10-13T06:29:03;32.30;;;9.50;;
81298;SDS011;70766;53.170;18.160;2023-10-13T06:31:35;29.10;;;9.20;;
81298;SDS011;70766;53.170;18.160;2023-10-13T06:34:04;26.30;;;8.80;;
81298;SDS011;70766;53.170;18.160;2023-10-13T06:36:33;25.80;;;8.40;;
81298;SDS011;70766;53.170;18.160;2023-10-13T06:39:01;26.00;;;7.20;;
81298;SDS011;70766;53.170;18.160;2023-10-13T06:41:52;20.90;;;7.70;;
81298;SDS011;70766;53.170;18.160;2023-10-13T06:44:20;29.80;;;8.60;;
81298;SDS011;70766;53.170;18.160;2023-10-13T06:46:50;18.80;;;7.50;;
81298;SDS011;70766;53.170;18.160;2023-10-13T06:49:20;19.70;;;7.70;;
81298;SDS011;70766;53.170;18.160;2023-10-13T06:51:51;21.30;;;6.80;;
81298;SDS011;70766;53.170;18.160;2023-10-13T06:54:19;17.90;;;6.90;;
81298;SDS011;70766;53.170;18.160;2023-10-13T06:56:48;18.50;;;7.60;;
81298;SDS011;70766;53.170;18.160;2023-10-13T06:59:20;17.00;;;6.80;;
81298;SDS011;70766;53.170;18.160;2023-10-13T07:01:55;14.50;;;6.80;;
81298;SDS011;70766;53.170;18.160;2023-10-13T07:04:48;16.50;;;6.90;;
81298;SDS011;70766;53.170;18.160;2023-10-13T07:07:25;13.20;;;6.50;;
81298;SDS011;70766;53.170;18.160;2023-10-13T07:09:53;13.70;;;6.80;;
81298;SDS011;70766;53.170;18.160;2023-10-13T07:12:26;15.10;;;6.40;;
81298;SDS011;70766;53.170;18.160;2023-10-13T07:14:54;16.40;;;7.20;;
81298;SDS011;70766;53.170;18.160;2023-10-13T07:17:39;17.90;;;6.70;;
81298;SDS011;70766;53.170;18.160;2023-10-13T07:20:08;16.10;;;6.70;;
81298;SDS011;70766;53.170;18.160;2023-10-13T07:22:43;13.40;;;6.80;;
81298;SDS011;70766;53.170;18.160;2023-10-13T07:25:30;14.90;;;7.70;;
81298;SDS011;70766;53.170;18.160;2023-10-13T07:28:00;13.90;;;6.80;;
81298;SDS011;70766;53.170;18.160;2023-10-13T07:30:31;15.20;;;6.90;;
81298;SDS011;70766;53.170;18.160;2023-10-13T07:33:07;15.20;;;7.00;;
81298;SDS011;70766;53.170;18.160;2023-10-13T07:35:38;14.00;;;7.20;;
81298;SDS011;70766;53.170;18.160;2023-10-13T07:38:06;14.60;;;7.10;;
81298;SDS011;70766;53.170;18.160;2023-10-13T07:40:36;14.60;;;6.80;;
81298;SDS011;70766;53.170;18.160;2023-10-13T07:43:04;16.70;;;7.50;;
81298;SDS011;70766;53.170;18.160;2023-10-13T07:45:37;17.80;;;7.50;;
81298;SDS011;70766;53.170;18.160;2023-10-13T07:48:09;15.70;;;7.60;;
81298;SDS011;70766;53.170;18.160;2023-10-13T07:50:57;15.40;;;7.70;;
81298;SDS011;70766;53.170;18.160;2023-10-13T07:53:39;17.50;;;7.80;;
81298;SDS011;70766;53.170;18.160;2023-10-13T07:56:11;16.40;;;7.70;;
81298;SDS011;70766;53.170;18.160;2023-10-13T07:58:40;14.10;;;7.10;;
81298;SDS011;70766;53.170;18.160;2023-10-13T08:01:21;16.10;;;8.20;;
81298;SDS011;70766;53.170;18.160;2023-10-13T08:03:49;16.20;;;7.40;;
81298;SDS011;70766;53.170;18.160;2023-10-13T08:06:32;16.20;;;8.00;;
81298;SDS011;70766;53.170;18.160;2023-10-13T08:09:02;18.30;;;7.80;;
81298;SDS011;70766;53.170;18.160;2023-10-13T08:11:56;17.50;;;8.20;;
81298;SDS011;70766;53.170;18.160;2023-10-13T08:14:24;20.40;;;8.40;;
81298;SDS011;70766;53.170;18.160;2023-10-13T08:17:07;17.60;;;8.30;;
81298;SDS011;70766;53.170;18.160;2023-10-13T08:19:37;23.60;;;9.40;;
81298;SDS011;70766;53.170;18.160;2023-10-13T08:22:24;18.70;;;8.40;;
81298;SDS011;70766;53.170;18.160;2023-10-13T08:24:52;23.70;;;9.60;;
81298;SDS011;70766;53.170;18.160;2023-10-13T08:27:21;19.50;;;8.50;;
81298;SDS011;70766;53.170;18.160;2023-10-13T08:30:08;16.00;;;8.50;;
81298;SDS011;70766;53.170;18.160;2023-10-13T08:32:54;15.40;;;7.90;;
81298;SDS011;70766;53.170;18.160;2023-10-13T08:35:25;20.10;;;9.90;;
81298;SDS011;70766;53.170;18.160;2023-10-13T08:38:03;18.00;;;9.20;;
81298;SDS011;70766;53.170;18.160;2023-10-13T08:40:58;18.40;;;8.80;;
81298;SDS011;70766;53.170;18.160;2023-10-13T08:43:46;18.20;;;9.80;;
81298;SDS011;70766;53.170;18.160;2023-10-13T08:46:21;17.90;;;9.80;;
81298;SDS011;70766;53.170;18.160;2023-10-13T08:48:57;23.10;;;10.00;;
81298;SDS011;70766;53.170;18.160;2023-10-13T08:51:53;22.00;;;9.60;;
81298;SDS011;70766;53.170;18.160;2023-10-13T08:54:35;18.80;;;10.10;;
81298;SDS011;70766;53.170;18.160;2023-10-13T08:57:07;20.80;;;10.00;;
81298;SDS011;70766;53.170;18.160;2023-10-13T08:59:54;20.40;;;9.30;;
81298;SDS011;70766;53.170;18.160;2023-10-13T09:02:23;18.00;;;9.90;;
81298;SDS011;70766;53.170;18.160;2023-10-13T09:05:13;18.00;;;9.30;;
81298;SDS011;70766;53.170;18.160;2023-10-13T09:08:01;18.90;;;10.00;;
81298;SDS011;70766;53.170;18.160;2023-10-13T09:10:37;18.70;;;10.10;;
81298;SDS011;70766;53.170;18.160;2023-10-13T09:13:34;16.70;;;9.10;;
81298;SDS011;70766;53.170;18.160;2023-10-13T09:16:15;23.80;;;8.80;;
81298;SDS011;70766;53.170;18.160;2023-10-13T09:19:02;17.40;;;9.50;;
81298;SDS011;70766;53.170;18.160;2023-10-13T09:21:37;16.50;;;8.70;;
81298;SDS011;70766;53.170;18.160;2023-10-13T09:24:09;20.50;;;9.50;;
81298;SDS011;70766;53.170;18.160;2023-10-13T09:27:00;18.70;;;9.00;;
81298;SDS011;70766;53.170;18.160;2023-10-13T09:29:29;18.70;;;9.60;;
81298;SDS011;70766;53.170;18.160;2023-10-13T09:32:03;22.20;;;10.30;;
81298;SDS011;70766;53.170;18.160;2023-10-13T09:34:32;20.60;;;9.80;;
81298;SDS011;70766;53.170;18.160;2023-10-13T09:37:08;22.20;;;10.10;;
81298;SDS011;70766;53.170;18.160;2023-10-13T09:39:39;21.60;;;9.90;;
81298;SDS011;70766;53.170;18.160;2023-10-13T09:42:14;20.10;;;9.80;;
81298;SDS011;70766;53.170;18.160;2023-10-13T09:44:46;20.00;;;10.20;;
81298;SDS011;70766;53.170;18.160;2023-10-13T09:47:23;23.50;;;9.80;;
81298;SDS011;70766;53.170;18.160;2023-10-13T09:49:59;22.60;;;10.20;;
81298;SDS011;70766;53.170;18.160;2023-10-13T09:52:42;30.40;;;10.80;;
81298;SDS011;70766;53.170;18.160;2023-10-13T09:55:21;22.00;;;9.40;;
81298;SDS011;70766;53.170;18.160;2023-10-13T09:58:02;21.30;;;10.20;;
81298;SDS011;70766;53.170;18.160;2023-10-13T10:00:52;29.40;;;11.80;;
81298;SDS011;70766;53.170;18.160;2023-10-13T10:03:48;28.40;;;12.30;;
81298;SDS011;70766;53.170;18.160;2023-10-13T10:06:36;27.20;;;11.80;;
81298;SDS011;70766;53.170;18.160;2023-10-13T10:09:08;24.30;;;11.30;;
81298;SDS011;70766;53.170;18.160;2023-10-13T10:14:16;27.60;;;12.20;;
81298;SDS011;70766;53.170;18.160;2023-10-13T10:17:04;31.90;;;12.30;;
81298;SDS011;70766;53.170;18.160;2023-10-13T10:19:52;33.80;;;13.20;;
81298;SDS011;70766;53.170;18.160;2023-10-13T10:22:32;31.60;;;11.80;;
81298;SDS011;70766;53.170;18.160;2023-10-13T10:25:05;26.60;;;12.30;;
81298;SDS011;70766;53.170;18.160;2023-10-13T10:27:34;30.20;;;12.60;;
81298;SDS011;70766;53.170;18.160;2023-10-13T10:30:03;33.90;;;12.70;;
81298;SDS011;70766;53.170;18.160;2023-10-13T10:32:32;31.70;;;14.60;;
81298;SDS011;70766;53.170;18.160;2023-10-13T10:35:05;31.00;;;13.80;;
81298;SDS011;70766;53.170;18.160;2023-10-13T10:37:43;30.60;;;13.50;;
81298;SDS011;70766;53.170;18.160;2023-10-13T10:40:18;28.90;;;14.60;;
81298;SDS011;70766;53.170;18.160;2023-10-13T10:43:14;30.00;;;14.00;;
81298;SDS011;70766;53.170;18.160;2023-10-13T10:46:00;28.80;;;13.30;;
81298;SDS011;70766;53.170;18.160;2023-10-13T10:48:30;27.60;;;12.50;;
81298;SDS011;70766;53.170;18.160;2023-10-13T10:51:02;26.40;;;13.00;;
81298;SDS011;70766;53.170;18.160;2023-10-13T10:53:49;28.40;;;12.50;;
81298;SDS011;70766;53.170;18.160;2023-10-13T10:56:22;26.00;;;11.70;;
81298;SDS011;70766;53.170;18.160;2023-10-13T10:59:12;26.70;;;12.40;;
81298;SDS011;70766;53.170;18.160;2023-10-13T11:01:47;27.60;;;11.20;;
81298;SDS011;70766;53.170;18.160;2023-10-13T11:04:17;27.40;;;12.60;;
81298;SDS011;70766;53.170;18.160;2023-10-13T11:07:02;25.90;;;12.40;;
81298;SDS011;70766;53.170;18.160;2023-10-13T11:09:31;22.80;;;12.00;;
81298;SDS011;70766;53.170;18.160;2023-10-13T11:12:14;25.00;;;12.10;;
81298;SDS011;70766;53.170;18.160;2023-10-13T11:14:43;26.10;;;11.50;;
81298;SDS011;70766;53.170;18.160;2023-10-13T11:17:18;24.80;;;12.80;;
81298;SDS011;70766;53.170;18.160;2023-10-13T11:19:52;27.40;;;12.00;;
81298;SDS011;70766;53.170;18.160;2023-10-13T11:22:21;20.80;;;12.20;;
81298;SDS011;70766;53.170;18.160;2023-10-13T11:25:01;22.60;;;10.70;;
81298;SDS011;70766;53.170;18.160;2023-10-13T11:27:42;23.70;;;11.20;;
81298;SDS011;70766;53.170;18.160;2023-10-13T11:30:13;20.00;;;10.30;;
81298;SDS011;70766;53.170;18.160;2023-10-13T11:35:38;18.70;;;10.50;;
81298;SDS011;70766;53.170;18.160;2023-10-13T11:38:17;17.70;;;9.40;;
81298;SDS011;70766;53.170;18.160;2023-10-13T11:41:04;20.10;;;9.90;;
81298;SDS011;70766;53.170;18.160;2023-10-13T11:43:34;21.50;;;9.80;;
81298;SDS011;70766;53.170;18.160;2023-10-13T11:46:13;16.20;;;9.00;;
81298;SDS011;70766;53.170;18.160;2023-10-13T11:48:45;16.90;;;9.60;;
81298;SDS011;70766;53.170;18.160;2023-10-13T11:51:15;20.80;;;9.10;;
81298;SDS011;70766;53.170;18.160;2023-10-13T11:53:52;19.80;;;9.70;;
81298;SDS011;70766;53.170;18.160;2023-10-13T11:56:20;19.50;;;9.90;;
81298;SDS011;70766;53.170;18.160;2023-10-13T11:58:48;19.70;;;9.40;;
81298;SDS011;70766;53.170;18.160;2023-10-13T12:01:17;21.40;;;10.30;;
81298;SDS011;70766;53.170;18.160;2023-10-13T12:03:47;16.20;;;8.20;;
81298;SDS011;70766;53.170;18.160;2023-10-13T12:06:35;18.50;;;9.60;;
81298;SDS011;70766;53.170;18.160;2023-10-13T12:09:07;16.60;;;9.50;;
81298;SDS011;70766;53.170;18.160;2023-10-13T12:11:46;22.70;;;9.40;;
81298;SDS011;70766;53.170;18.160;2023-10-13T12:14:16;19.50;;;9.60;;
81298;SDS011;70766;53.170;18.160;2023-10-13T12:17:05;17.40;;;8.90;;
81298;SDS011;70766;53.170;18.160;2023-10-13T12:19:38;19.30;;;9.00;;
81298;SDS011;70766;53.170;18.160;2023-10-13T12:22:07;16.80;;;7.80;;
81298;SDS011;70766;53.170;18.160;2023-10-13T12:24:37;19.50;;;9.70;;
81298;SDS011;70766;53.170;18.160;2023-10-13T12:27:08;19.30;;;10.20;;
81298;SDS011;70766;53.170;18.160;2023-10-13T12:29:56;15.20;;;7.80;;
81298;SDS011;70766;53.170;18.160;2023-10-13T12:32:24;20.50;;;9.10;;
81298;SDS011;70766;53.170;18.160;2023-10-13T12:34:58;16.70;;;9.30;;
81298;SDS011;70766;53.170;18.160;2023-10-13T12:37:30;18.80;;;9.50;;
81298;SDS011;70766;53.170;18.160;2023-10-13T12:43:00;22.10;;;10.70;;
81298;SDS011;70766;53.170;18.160;2023-10-13T12:45:47;23.40;;;11.00;;
81298;SDS011;70766;53.170;18.160;2023-10-13T12:48:36;24.60;;;11.70;;
81298;SDS011;70766;53.170;18.160;2023-10-13T12:51:23;20.10;;;11.00;;
81298;SDS011;70766;53.170;18.160;2023-10-13T12:54:01;24.70;;;11.30;;
81298;SDS011;70766;53.170;18.160;2023-10-13T12:56:34;20.70;;;10.60;;
81298;SDS011;70766;53.170;18.160;2023-10-13T12:59:09;24.00;;;11.60;;
81298;SDS011;70766;53.170;18.160;2023-10-13T13:01:41;22.20;;;11.80;;
81298;SDS011;70766;53.170;18.160;2023-10-13T13:04:12;22.40;;;11.40;;
81298;SDS011;70766;53.170;18.160;2023-10-13T13:06:49;22.90;;;12.60;;
81298;SDS011;70766;53.170;18.160;2023-10-13T13:09:18;21.30;;;12.10;;
81298;SDS011;70766;53.170;18.160;2023-10-13T13:11:55;22.30;;;11.60;;
81298;SDS011;70766;53.170;18.160;2023-10-13T13:14:26;18.40;;;11.50;;
81298;SDS011;70766;53.170;18.160;2023-10-13T13:16:57;20.40;;;10.90;;
81298;SDS011;70766;53.170;18.160;2023-10-13T13:19:36;20.90;;;11.90;;
81298;SDS011;70766;53.170;18.160;2023-10-13T13:22:08;20.30;;;10.80;;
81298;SDS011;70766;53.170;18.160;2023-10-13T13:24:43;24.50;;;12.00;;
81298;SDS011;70766;53.170;18.160;2023-10-13T13:27:13;19.40;;;11.30;;
81298;SDS011;70766;53.170;18.160;2023-10-13T13:29:45;19.10;;;11.30;;
81298;SDS011;70766;53.170;18.160;2023-10-13T13:32:14;18.40;;;11.60;;
81298;SDS011;70766;53.170;18.160;2023-10-13T13:34:47;21.70;;;12.20;;
81298;SDS011;70766;53.170;18.160;2023-10-13T13:37:23;22.10;;;11.80;;
81298;SDS011;70766;53.170;18.160;2023-10-13T13:39:55;20.40;;;11.20;;
81298;SDS011;70766;53.170;18.160;2023-10-13T13:42:24;21.90;;;12.30;;
81298;SDS011;70766;53.170;18.160;2023-10-13T13:44:52;18.00;;;9.90;;
81298;SDS011;70766;53.170;18.160;2023-10-13T13:47:20;20.60;;;10.90;;
81298;SDS011;70766;53.170;18.160;2023-10-13T13:49:49;20.30;;;11.40;;
81298;SDS011;70766;53.170;18.160;2023-10-13T13:52:23;19.30;;;10.70;;
81298;SDS011;70766;53.170;18.160;2023-10-13T13:55:01;17.20;;;10.40;;
81298;SDS011;70766;53.170;18.160;2023-10-13T13:57:30;19.10;;;11.40;;
81298;SDS011;70766;53.170;18.160;2023-10-13T13:59:58;18.10;;;9.90;;
81298;SDS011;70766;53.170;18.160;2023-10-13T14:02:26;20.30;;;10.50;;
81298;SDS011;70766;53.170;18.160;2023-10-13T14:04:56;17.30;;;9.60;;
81298;SDS011;70766;53.170;18.160;2023-10-13T14:07:25;15.90;;;9.10;;
81298;SDS011;70766;53.170;18.160;2023-10-13T14:09:53;15.20;;;9.30;;
81298;SDS011;70766;53.170;18.160;2023-10-13T14:12:33;14.40;;;9.10;;
81298;SDS011;70766;53.170;18.160;2023-10-13T14:15:10;16.60;;;7.90;;
81298;SDS011;70766;53.170;18.160;2023-10-13T14:17:48;14.10;;;8.00;;
81298;SDS011;70766;53.170;18.160;2023-10-13T14:20:17;15.00;;;7.40;;
81298;SDS011;70766;53.170;18.160;2023-10-13T14:22:48;13.90;;;7.20;;
81298;SDS011;70766;53.170;18.160;2023-10-13T14:25:19;13.50;;;6.60;;
81298;SDS011;70766;53.170;18.160;2023-10-13T14:27:52;12.10;;;6.60;;
81298;SDS011;70766;53.170;18.160;2023-10-13T14:30:20;11.20;;;7.00;;
81298;SDS011;70766;53.170;18.160;2023-10-13T14:32:49;12.00;;;6.80;;
81298;SDS011;70766;53.170;18.160;2023-10-13T14:35:17;14.40;;;6.80;;
81298;SDS011;70766;53.170;18.160;2023-10-13T14:37:46;11.00;;;6.80;;
81298;SDS011;70766;53.170;18.160;2023-10-13T14:40:14;11.60;;;6.90;;
81298;SDS011;70766;53.170;18.160;2023-10-13T14:42:44;12.20;;;6.00;;
81298;SDS011;70766;53.170;18.160;2023-10-13T14:45:15;11.40;;;6.40;;
81298;SDS011;70766;53.170;18.160;2023-10-13T14:47:47;13.60;;;7.20;;
81298;SDS011;70766;53.170;18.160;2023-10-13T14:50:15;10.90;;;6.30;;
81298;SDS011;70766;53.170;18.160;2023-10-13T14:52:49;18.40;;;5.60;;
81298;SDS011;70766;53.170;18.160;2023-10-13T14:55:19;12.50;;;6.80;;
81298;SDS011;70766;53.170;18.160;2023-10-13T14:57:48;14.10;;;6.50;;
81298;SDS011;70766;53.170;18.160;2023-10-13T15:00:19;12.30;;;6.10;;
81298;SDS011;70766;53.170;18.160;2023-10-13T15:02:53;13.60;;;6.50;;
81298;SDS011;70766;53.170;18.160;2023-10-13T15:05:23;11.00;;;6.30;;
81298;SDS011;70766;53.170;18.160;2023-10-13T15:07:51;15.90;;;7.30;;
81298;SDS011;70766;53.170;18.160;2023-10-13T15:10:20;11.40;;;7.40;;
81298;SDS011;70766;53.170;18.160;2023-10-13T15:12:48;11.30;;;6.90;;
81298;SDS011;70766;53.170;18.160;2023-10-13T15:15:16;10.70;;;6.80;;
81298;SDS011;70766;53.170;18.160;2023-10-13T15:17:47;10.80;;;7.00;;